sensor_id;sensor_type;location;lat;lon;timestamp;temperature;humidity
33827;DHT22;20128;45.582;5.298;2023-04-06T00:01:27;10.40;49.50
33827;DHT22;20128;45.582;5.298;2023-04-06T00:03:53;10.40;49.60
33827;DHT22;20128;45.582;5.298;2023-04-06T00:06:18;10.30;49.60
33827;DHT22;20128;45.582;5.298;2023-04-06T00:08:44;10.10;50.20
33827;DHT22;20128;45.582;5.298;2023-04-06T00:11:10;9.90;50.20
33827;DHT22;20128;45.582;5.298;2023-04-06T00:13:37;9.50;50.80
33827;DHT22;20128;45.582;5.298;2023-04-06T00:16:03;9.10;51.80
33827;DHT22;20128;45.582;5.298;2023-04-06T00:18:30;8.90;52.20
33827;DHT22;20128;45.582;5.298;2023-04-06T00:20:56;8.80;52.50
33827;DHT22;20128;45.582;5.298;2023-04-06T00:23:22;8.60;52.90
33827;DHT22;20128;45.582;5.298;2023-04-06T00:25:47;8.60;53.20
33827;DHT22;20128;45.582;5.298;2023-04-06T00:28:13;8.70;53.50
33827;DHT22;20128;45.582;5.298;2023-04-06T00:30:39;9.00;53.10
33827;DHT22;20128;45.582;5.298;2023-04-06T00:33:05;9.20;52.50
33827;DHT22;20128;45.582;5.298;2023-04-06T00:35:30;9.30;52.30
33827;DHT22;20128;45.582;5.298;2023-04-06T00:37:56;9.40;52.30
33827;DHT22;20128;45.582;5.298;2023-04-06T00:40:22;9.50;52.00
33827;DHT22;20128;45.582;5.298;2023-04-06T00:42:47;9.60;52.20
33827;DHT22;20128;45.582;5.298;2023-04-06T00:45:13;9.50;52.00
33827;DHT22;20128;45.582;5.298;2023-04-06T00:47:39;9.50;52.20
33827;DHT22;20128;45.582;5.298;2023-04-06T00:50:05;9.60;52.10
33827;DHT22;20128;45.582;5.298;2023-04-06T00:52:31;9.60;51.90
33827;DHT22;20128;45.582;5.298;2023-04-06T00:54:56;9.70;52.00
33827;DHT22;20128;45.582;5.298;2023-04-06T00:57:22;9.70;51.90
33827;DHT22;20128;45.582;5.298;2023-04-06T00:59:48;9.70;51.80
33827;DHT22;20128;45.582;5.298;2023-04-06T01:02:14;9.80;51.70
33827;DHT22;20128;45.582;5.298;2023-04-06T01:04:40;9.70;51.70
33827;DHT22;20128;45.582;5.298;2023-04-06T01:07:06;9.70;51.70
33827;DHT22;20128;45.582;5.298;2023-04-06T01:09:31;9.70;51.80
33827;DHT22;20128;45.582;5.298;2023-04-06T01:11:58;9.60;51.80
33827;DHT22;20128;45.582;5.298;2023-04-06T01:14:24;9.60;51.80
33827;DHT22;20128;45.582;5.298;2023-04-06T01:16:51;9.50;51.70
33827;DHT22;20128;45.582;5.298;2023-04-06T01:19:17;9.50;51.90
33827;DHT22;20128;45.582;5.298;2023-04-06T01:21:43;9.50;51.90
33827;DHT22;20128;45.582;5.298;2023-04-06T01:24:09;9.50;51.90
33827;DHT22;20128;45.582;5.298;2023-04-06T01:26:37;9.50;52.00
33827;DHT22;20128;45.582;5.298;2023-04-06T01:29:03;9.50;52.00
33827;DHT22;20128;45.582;5.298;2023-04-06T01:31:29;9.50;52.20
33827;DHT22;20128;45.582;5.298;2023-04-06T01:33:55;9.50;52.20
33827;DHT22;20128;45.582;5.298;2023-04-06T01:36:21;9.50;52.20
33827;DHT22;20128;45.582;5.298;2023-04-06T01:38:47;9.50;52.40
33827;DHT22;20128;45.582;5.298;2023-04-06T01:41:13;9.20;52.30
33827;DHT22;20128;45.582;5.298;2023-04-06T01:43:38;8.70;53.00
33827;DHT22;20128;45.582;5.298;2023-04-06T01:46:04;8.30;54.00
33827;DHT22;20128;45.582;5.298;2023-04-06T01:48:30;8.20;54.40
33827;DHT22;20128;45.582;5.298;2023-04-06T01:50:56;8.30;54.40
33827;DHT22;20128;45.582;5.298;2023-04-06T01:53:21;8.50;54.30
33827;DHT22;20128;45.582;5.298;2023-04-06T01:55:47;8.60;54.10
33827;DHT22;20128;45.582;5.298;2023-04-06T01:58:13;8.70;53.90
33827;DHT22;20128;45.582;5.298;2023-04-06T02:00:40;8.80;53.70
33827;DHT22;20128;45.582;5.298;2023-04-06T02:03:06;8.90;53.60
33827;DHT22;20128;45.582;5.298;2023-04-06T02:05:32;8.90;53.70
33827;DHT22;20128;45.582;5.298;2023-04-06T02:08:05;8.90;53.70
33827;DHT22;20128;45.582;5.298;2023-04-06T02:10:32;8.80;53.80
33827;DHT22;20128;45.582;5.298;2023-04-06T02:12:57;8.80;54.30
33827;DHT22;20128;45.582;5.298;2023-04-06T02:15:23;8.70;54.20
33827;DHT22;20128;45.582;5.298;2023-04-06T02:17:49;8.70;54.50
33827;DHT22;20128;45.582;5.298;2023-04-06T02:20:15;8.60;54.50
33827;DHT22;20128;45.582;5.298;2023-04-06T02:22:40;8.60;54.60
33827;DHT22;20128;45.582;5.298;2023-04-06T02:25:06;8.50;54.60
33827;DHT22;20128;45.582;5.298;2023-04-06T02:27:33;8.50;54.70
33827;DHT22;20128;45.582;5.298;2023-04-06T02:29:58;8.40;54.80
33827;DHT22;20128;45.582;5.298;2023-04-06T02:32:24;8.20;54.80
33827;DHT22;20128;45.582;5.298;2023-04-06T02:34:50;8.10;55.10
33827;DHT22;20128;45.582;5.298;2023-04-06T02:37:15;8.10;55.30
33827;DHT22;20128;45.582;5.298;2023-04-06T02:39:41;8.20;55.50
33827;DHT22;20128;45.582;5.298;2023-04-06T02:42:07;8.10;55.40
33827;DHT22;20128;45.582;5.298;2023-04-06T02:44:34;8.20;55.60
33827;DHT22;20128;45.582;5.298;2023-04-06T02:47:00;8.20;55.50
33827;DHT22;20128;45.582;5.298;2023-04-06T02:49:25;8.30;55.50
33827;DHT22;20128;45.582;5.298;2023-04-06T02:51:51;8.30;55.70
33827;DHT22;20128;45.582;5.298;2023-04-06T02:54:17;8.30;55.70
33827;DHT22;20128;45.582;5.298;2023-04-06T02:56:43;8.20;55.70
33827;DHT22;20128;45.582;5.298;2023-04-06T02:59:09;8.20;55.70
33827;DHT22;20128;45.582;5.298;2023-04-06T03:01:34;8.20;55.70
33827;DHT22;20128;45.582;5.298;2023-04-06T03:04:01;8.00;55.70
33827;DHT22;20128;45.582;5.298;2023-04-06T03:06:27;8.10;56.10
33827;DHT22;20128;45.582;5.298;2023-04-06T03:08:52;8.00;56.00
33827;DHT22;20128;45.582;5.298;2023-04-06T03:11:18;8.00;55.90
33827;DHT22;20128;45.582;5.298;2023-04-06T03:13:44;7.70;56.10
33827;DHT22;20128;45.582;5.298;2023-04-06T03:16:10;7.50;57.20
33827;DHT22;20128;45.582;5.298;2023-04-06T03:18:35;7.50;56.90
33827;DHT22;20128;45.582;5.298;2023-04-06T03:21:01;7.50;56.90
33827;DHT22;20128;45.582;5.298;2023-04-06T03:23:27;7.50;57.00
33827;DHT22;20128;45.582;5.298;2023-04-06T03:25:52;7.60;57.00
33827;DHT22;20128;45.582;5.298;2023-04-06T03:28:18;7.70;56.90
33827;DHT22;20128;45.582;5.298;2023-04-06T03:30:45;7.70;56.70
33827;DHT22;20128;45.582;5.298;2023-04-06T03:33:10;7.80;56.80
33827;DHT22;20128;45.582;5.298;2023-04-06T03:35:36;7.80;56.60
33827;DHT22;20128;45.582;5.298;2023-04-06T03:38:03;7.80;56.60
33827;DHT22;20128;45.582;5.298;2023-04-06T03:40:29;7.80;56.40
33827;DHT22;20128;45.582;5.298;2023-04-06T03:42:54;7.80;56.50
33827;DHT22;20128;45.582;5.298;2023-04-06T03:45:20;7.80;56.50
33827;DHT22;20128;45.582;5.298;2023-04-06T03:47:46;7.80;56.50
33827;DHT22;20128;45.582;5.298;2023-04-06T03:50:12;7.80;56.70
33827;DHT22;20128;45.582;5.298;2023-04-06T03:52:37;7.70;56.80
33827;DHT22;20128;45.582;5.298;2023-04-06T03:55:03;7.70;57.00
33827;DHT22;20128;45.582;5.298;2023-04-06T03:57:29;7.60;57.00
33827;DHT22;20128;45.582;5.298;2023-04-06T03:59:55;7.40;57.10
33827;DHT22;20128;45.582;5.298;2023-04-06T04:02:21;7.10;57.70
33827;DHT22;20128;45.582;5.298;2023-04-06T04:04:46;6.80;58.50
33827;DHT22;20128;45.582;5.298;2023-04-06T04:07:12;6.50;59.20
33827;DHT22;20128;45.582;5.298;2023-04-06T04:09:38;6.30;59.60
33827;DHT22;20128;45.582;5.298;2023-04-06T04:12:03;6.30;60.00
33827;DHT22;20128;45.582;5.298;2023-04-06T04:14:29;6.10;60.20
33827;DHT22;20128;45.582;5.298;2023-04-06T04:16:55;6.00;60.60
33827;DHT22;20128;45.582;5.298;2023-04-06T04:19:20;5.90;60.80
33827;DHT22;20128;45.582;5.298;2023-04-06T04:21:47;5.90;61.00
33827;DHT22;20128;45.582;5.298;2023-04-06T04:24:13;6.10;60.70
33827;DHT22;20128;45.582;5.298;2023-04-06T04:26:39;6.30;60.30
33827;DHT22;20128;45.582;5.298;2023-04-06T04:29:05;6.40;60.20
33827;DHT22;20128;45.582;5.298;2023-04-06T04:31:31;6.50;60.10
33827;DHT22;20128;45.582;5.298;2023-04-06T04:33:57;6.60;59.90
33827;DHT22;20128;45.582;5.298;2023-04-06T04:36:23;6.60;59.80
33827;DHT22;20128;45.582;5.298;2023-04-06T04:38:51;6.60;59.90
33827;DHT22;20128;45.582;5.298;2023-04-06T04:41:17;6.60;59.90
33827;DHT22;20128;45.582;5.298;2023-04-06T04:43:43;6.60;59.90
33827;DHT22;20128;45.582;5.298;2023-04-06T04:46:08;6.70;59.90
33827;DHT22;20128;45.582;5.298;2023-04-06T04:48:34;6.70;59.80
33827;DHT22;20128;45.582;5.298;2023-04-06T04:51:00;6.70;59.70
33827;DHT22;20128;45.582;5.298;2023-04-06T04:53:26;6.80;59.60
33827;DHT22;20128;45.582;5.298;2023-04-06T04:55:51;6.80;59.50
33827;DHT22;20128;45.582;5.298;2023-04-06T04:58:17;6.90;59.50
33827;DHT22;20128;45.582;5.298;2023-04-06T05:00:45;7.00;59.40
33827;DHT22;20128;45.582;5.298;2023-04-06T05:03:25;7.00;59.30
33827;DHT22;20128;45.582;5.298;2023-04-06T05:05:51;7.00;59.20
33827;DHT22;20128;45.582;5.298;2023-04-06T05:08:17;6.90;59.30
33827;DHT22;20128;45.582;5.298;2023-04-06T05:10:43;6.90;59.40
33827;DHT22;20128;45.582;5.298;2023-04-06T05:13:10;6.90;59.60
33827;DHT22;20128;45.582;5.298;2023-04-06T05:15:36;6.80;59.70
33827;DHT22;20128;45.582;5.298;2023-04-06T05:18:07;6.80;59.70
33827;DHT22;20128;45.582;5.298;2023-04-06T05:20:33;6.90;59.80
33827;DHT22;20128;45.582;5.298;2023-04-06T05:22:59;6.80;59.80
33827;DHT22;20128;45.582;5.298;2023-04-06T05:25:25;6.90;59.90
33827;DHT22;20128;45.582;5.298;2023-04-06T05:27:51;6.80;59.80
33827;DHT22;20128;45.582;5.298;2023-04-06T05:30:17;6.80;59.80
33827;DHT22;20128;45.582;5.298;2023-04-06T05:32:42;6.80;60.00
33827;DHT22;20128;45.582;5.298;2023-04-06T05:35:10;6.70;60.00
33827;DHT22;20128;45.582;5.298;2023-04-06T05:37:37;6.70;60.10
33827;DHT22;20128;45.582;5.298;2023-04-06T05:40:03;6.70;60.30
33827;DHT22;20128;45.582;5.298;2023-04-06T05:42:45;6.70;60.50
33827;DHT22;20128;45.582;5.298;2023-04-06T05:45:12;6.70;60.70
33827;DHT22;20128;45.582;5.298;2023-04-06T05:47:42;6.70;60.80
33827;DHT22;20128;45.582;5.298;2023-04-06T05:50:10;6.70;60.70
33827;DHT22;20128;45.582;5.298;2023-04-06T05:52:35;6.70;60.80
33827;DHT22;20128;45.582;5.298;2023-04-06T05:55:02;6.80;60.80
33827;DHT22;20128;45.582;5.298;2023-04-06T05:57:28;6.80;60.50
33827;DHT22;20128;45.582;5.298;2023-04-06T05:59:54;6.70;60.70
33827;DHT22;20128;45.582;5.298;2023-04-06T06:02:21;6.70;61.00
33827;DHT22;20128;45.582;5.298;2023-04-06T06:04:47;6.70;61.00
33827;DHT22;20128;45.582;5.298;2023-04-06T06:07:14;6.80;61.10
33827;DHT22;20128;45.582;5.298;2023-04-06T06:09:40;6.90;61.00
33827;DHT22;20128;45.582;5.298;2023-04-06T06:12:06;6.90;60.80
33827;DHT22;20128;45.582;5.298;2023-04-06T06:14:31;7.00;60.50
33827;DHT22;20128;45.582;5.298;2023-04-06T06:16:57;7.00;60.30
33827;DHT22;20128;45.582;5.298;2023-04-06T06:19:23;7.00;60.50
33827;DHT22;20128;45.582;5.298;2023-04-06T06:21:49;7.00;60.50
33827;DHT22;20128;45.582;5.298;2023-04-06T06:24:14;6.90;60.80
33827;DHT22;20128;45.582;5.298;2023-04-06T06:26:40;7.00;60.80
33827;DHT22;20128;45.582;5.298;2023-04-06T06:29:06;6.90;61.00
33827;DHT22;20128;45.582;5.298;2023-04-06T06:31:32;7.00;61.40
33827;DHT22;20128;45.582;5.298;2023-04-06T06:33:58;7.00;61.40
33827;DHT22;20128;45.582;5.298;2023-04-06T06:36:25;7.10;61.50
33827;DHT22;20128;45.582;5.298;2023-04-06T06:38:51;7.20;61.60
33827;DHT22;20128;45.582;5.298;2023-04-06T06:41:17;7.20;61.60
33827;DHT22;20128;45.582;5.298;2023-04-06T06:43:43;7.20;61.60
33827;DHT22;20128;45.582;5.298;2023-04-06T06:46:09;7.30;61.60
33827;DHT22;20128;45.582;5.298;2023-04-06T06:48:34;7.30;61.60
33827;DHT22;20128;45.582;5.298;2023-04-06T06:51:00;7.30;61.70
33827;DHT22;20128;45.582;5.298;2023-04-06T06:53:26;7.40;61.70
33827;DHT22;20128;45.582;5.298;2023-04-06T06:55:52;7.40;61.40
33827;DHT22;20128;45.582;5.298;2023-04-06T06:58:18;7.40;61.40
33827;DHT22;20128;45.582;5.298;2023-04-06T07:00:45;7.50;61.50
33827;DHT22;20128;45.582;5.298;2023-04-06T07:03:11;7.60;61.20
33827;DHT22;20128;45.582;5.298;2023-04-06T07:05:37;7.50;61.00
33827;DHT22;20128;45.582;5.298;2023-04-06T07:08:03;7.60;61.10
33827;DHT22;20128;45.582;5.298;2023-04-06T07:10:28;7.60;61.30
33827;DHT22;20128;45.582;5.298;2023-04-06T07:12:54;7.70;61.10
33827;DHT22;20128;45.582;5.298;2023-04-06T07:15:20;7.80;61.00
33827;DHT22;20128;45.582;5.298;2023-04-06T07:17:45;7.80;60.30
33827;DHT22;20128;45.582;5.298;2023-04-06T07:20:12;7.90;60.20
33827;DHT22;20128;45.582;5.298;2023-04-06T07:22:38;7.90;60.30
33827;DHT22;20128;45.582;5.298;2023-04-06T07:25:05;8.00;60.50
33827;DHT22;20128;45.582;5.298;2023-04-06T07:27:31;8.10;60.60
33827;DHT22;20128;45.582;5.298;2023-04-06T07:29:56;8.10;60.60
33827;DHT22;20128;45.582;5.298;2023-04-06T07:32:22;8.20;60.50
33827;DHT22;20128;45.582;5.298;2023-04-06T07:34:48;8.30;60.40
33827;DHT22;20128;45.582;5.298;2023-04-06T07:37:13;8.40;60.10
33827;DHT22;20128;45.582;5.298;2023-04-06T07:39:39;8.50;60.00
33827;DHT22;20128;45.582;5.298;2023-04-06T07:42:06;8.60;60.00
33827;DHT22;20128;45.582;5.298;2023-04-06T07:44:32;8.70;60.00
33827;DHT22;20128;45.582;5.298;2023-04-06T07:46:58;8.80;59.60
33827;DHT22;20128;45.582;5.298;2023-04-06T07:49:23;8.90;58.80
33827;DHT22;20128;45.582;5.298;2023-04-06T07:51:49;9.00;59.10
33827;DHT22;20128;45.582;5.298;2023-04-06T07:54:15;9.10;59.20
33827;DHT22;20128;45.582;5.298;2023-04-06T07:56:40;9.10;58.80
33827;DHT22;20128;45.582;5.298;2023-04-06T07:59:06;9.10;58.60
33827;DHT22;20128;45.582;5.298;2023-04-06T08:01:32;9.20;58.90
33827;DHT22;20128;45.582;5.298;2023-04-06T08:03:58;9.20;58.50
33827;DHT22;20128;45.582;5.298;2023-04-06T08:06:24;9.20;58.10
33827;DHT22;20128;45.582;5.298;2023-04-06T08:08:50;9.20;58.20
33827;DHT22;20128;45.582;5.298;2023-04-06T08:11:16;9.30;58.40
33827;DHT22;20128;45.582;5.298;2023-04-06T08:13:41;9.30;58.40
33827;DHT22;20128;45.582;5.298;2023-04-06T08:16:07;9.30;59.10
33827;DHT22;20128;45.582;5.298;2023-04-06T08:18:33;9.40;59.80
33827;DHT22;20128;45.582;5.298;2023-04-06T08:20:58;9.50;59.60
33827;DHT22;20128;45.582;5.298;2023-04-06T08:23:24;9.50;59.20
33827;DHT22;20128;45.582;5.298;2023-04-06T08:25:49;9.50;58.10
33827;DHT22;20128;45.582;5.298;2023-04-06T08:28:15;9.50;57.60
33827;DHT22;20128;45.582;5.298;2023-04-06T08:30:42;9.60;58.10
33827;DHT22;20128;45.582;5.298;2023-04-06T08:33:08;9.70;57.90
33827;DHT22;20128;45.582;5.298;2023-04-06T08:35:34;9.80;58.20
33827;DHT22;20128;45.582;5.298;2023-04-06T08:37:59;10.00;58.30
33827;DHT22;20128;45.582;5.298;2023-04-06T08:40:25;10.10;57.80
33827;DHT22;20128;45.582;5.298;2023-04-06T08:42:55;10.20;57.20
33827;DHT22;20128;45.582;5.298;2023-04-06T08:45:22;10.30;56.30
33827;DHT22;20128;45.582;5.298;2023-04-06T08:47:51;10.50;56.30
33827;DHT22;20128;45.582;5.298;2023-04-06T08:50:20;10.60;54.70
33827;DHT22;20128;45.582;5.298;2023-04-06T08:52:49;10.70;55.00
33827;DHT22;20128;45.582;5.298;2023-04-06T08:55:15;10.80;54.50
33827;DHT22;20128;45.582;5.298;2023-04-06T08:57:42;10.90;53.60
33827;DHT22;20128;45.582;5.298;2023-04-06T09:00:10;10.90;53.70
33827;DHT22;20128;45.582;5.298;2023-04-06T09:02:40;11.00;54.40
33827;DHT22;20128;45.582;5.298;2023-04-06T09:05:08;11.20;54.60
33827;DHT22;20128;45.582;5.298;2023-04-06T09:07:35;11.40;54.50
33827;DHT22;20128;45.582;5.298;2023-04-06T09:10:01;11.50;54.10
33827;DHT22;20128;45.582;5.298;2023-04-06T09:12:29;11.70;53.50
33827;DHT22;20128;45.582;5.298;2023-04-06T09:14:56;11.80;53.30
33827;DHT22;20128;45.582;5.298;2023-04-06T09:17:23;12.00;52.70
33827;DHT22;20128;45.582;5.298;2023-04-06T09:19:50;12.20;51.50
33827;DHT22;20128;45.582;5.298;2023-04-06T09:22:16;12.30;51.50
33827;DHT22;20128;45.582;5.298;2023-04-06T09:24:47;12.50;50.20
33827;DHT22;20128;45.582;5.298;2023-04-06T09:27:14;12.60;50.40
33827;DHT22;20128;45.582;5.298;2023-04-06T09:29:41;12.70;46.90
33827;DHT22;20128;45.582;5.298;2023-04-06T09:32:08;12.70;45.80
33827;DHT22;20128;45.582;5.298;2023-04-06T09:34:37;12.90;45.30
33827;DHT22;20128;45.582;5.298;2023-04-06T09:37:17;13.00;45.50
33827;DHT22;20128;45.582;5.298;2023-04-06T09:39:43;13.20;44.70
33827;DHT22;20128;45.582;5.298;2023-04-06T09:42:09;13.30;43.10
33827;DHT22;20128;45.582;5.298;2023-04-06T09:44:35;13.40;43.90
33827;DHT22;20128;45.582;5.298;2023-04-06T09:47:04;13.60;43.80
33827;DHT22;20128;45.582;5.298;2023-04-06T09:49:32;13.80;43.30
33827;DHT22;20128;45.582;5.298;2023-04-06T09:52:03;13.90;43.60
33827;DHT22;20128;45.582;5.298;2023-04-06T09:54:30;14.10;43.50
33827;DHT22;20128;45.582;5.298;2023-04-06T09:57:07;14.30;43.30
33827;DHT22;20128;45.582;5.298;2023-04-06T09:59:57;14.40;40.50
33827;DHT22;20128;45.582;5.298;2023-04-06T10:05:33;14.70;40.40
33827;DHT22;20128;45.582;5.298;2023-04-06T10:08:06;14.90;40.60
33827;DHT22;20128;45.582;5.298;2023-04-06T10:10:32;14.90;40.50
33827;DHT22;20128;45.582;5.298;2023-04-06T10:12:58;14.90;39.90
33827;DHT22;20128;45.582;5.298;2023-04-06T10:15:24;15.00;39.90
33827;DHT22;20128;45.582;5.298;2023-04-06T10:17:50;15.10;38.60
33827;DHT22;20128;45.582;5.298;2023-04-06T10:25:32;15.30;39.50
33827;DHT22;20128;45.582;5.298;2023-04-06T10:28:02;15.50;39.90
33827;DHT22;20128;45.582;5.298;2023-04-06T10:30:30;15.60;39.70
33827;DHT22;20128;45.582;5.298;2023-04-06T10:32:56;15.70;38.60
33827;DHT22;20128;45.582;5.298;2023-04-06T10:35:22;15.80;38.60
33827;DHT22;20128;45.582;5.298;2023-04-06T10:38:02;16.10;38.70
33827;DHT22;20128;45.582;5.298;2023-04-06T10:40:28;16.10;38.00
33827;DHT22;20128;45.582;5.298;2023-04-06T10:42:55;16.10;38.20
33827;DHT22;20128;45.582;5.298;2023-04-06T10:45:25;16.20;37.50
33827;DHT22;20128;45.582;5.298;2023-04-06T10:47:55;16.10;37.60
33827;DHT22;20128;45.582;5.298;2023-04-06T10:50:21;16.10;36.20
33827;DHT22;20128;45.582;5.298;2023-04-06T10:53:01;16.10;36.10
33827;DHT22;20128;45.582;5.298;2023-04-06T10:55:28;16.10;37.70
33827;DHT22;20128;45.582;5.298;2023-04-06T10:57:54;16.20;37.20
33827;DHT22;20128;45.582;5.298;2023-04-06T11:00:20;16.20;37.90
33827;DHT22;20128;45.582;5.298;2023-04-06T11:02:46;16.30;37.60
33827;DHT22;20128;45.582;5.298;2023-04-06T11:05:12;16.50;38.10
33827;DHT22;20128;45.582;5.298;2023-04-06T11:07:41;16.60;38.00
33827;DHT22;20128;45.582;5.298;2023-04-06T11:10:08;16.60;35.10
33827;DHT22;20128;45.582;5.298;2023-04-06T11:12:34;16.60;35.80
33827;DHT22;20128;45.582;5.298;2023-04-06T11:15:02;16.50;35.70
33827;DHT22;20128;45.582;5.298;2023-04-06T11:17:35;16.60;36.60
33827;DHT22;20128;45.582;5.298;2023-04-06T11:20:02;16.60;36.60
33827;DHT22;20128;45.582;5.298;2023-04-06T11:22:29;16.60;37.30
33827;DHT22;20128;45.582;5.298;2023-04-06T11:25:07;16.60;36.20
33827;DHT22;20128;45.582;5.298;2023-04-06T11:27:34;16.40;35.50
33827;DHT22;20128;45.582;5.298;2023-04-06T11:30:02;16.40;36.10
33827;DHT22;20128;45.582;5.298;2023-04-06T11:32:28;16.30;37.00
33827;DHT22;20128;45.582;5.298;2023-04-06T11:34:53;16.40;36.90
33827;DHT22;20128;45.582;5.298;2023-04-06T11:37:19;16.40;37.30
33827;DHT22;20128;45.582;5.298;2023-04-06T11:39:50;16.40;37.40
33827;DHT22;20128;45.582;5.298;2023-04-06T11:42:29;16.40;36.80
33827;DHT22;20128;45.582;5.298;2023-04-06T11:44:59;16.40;37.00
33827;DHT22;20128;45.582;5.298;2023-04-06T11:47:36;16.40;35.30
33827;DHT22;20128;45.582;5.298;2023-04-06T11:50:12;16.40;36.20
33827;DHT22;20128;45.582;5.298;2023-04-06T11:52:39;16.40;36.80
33827;DHT22;20128;45.582;5.298;2023-04-06T11:55:13;16.50;37.20
33827;DHT22;20128;45.582;5.298;2023-04-06T11:57:41;16.40;36.70
33827;DHT22;20128;45.582;5.298;2023-04-06T12:00:08;16.40;36.60
33827;DHT22;20128;45.582;5.298;2023-04-06T12:02:38;16.40;37.50
33827;DHT22;20128;45.582;5.298;2023-04-06T12:05:04;16.40;36.80
33827;DHT22;20128;45.582;5.298;2023-04-06T12:07:31;16.50;36.40
33827;DHT22;20128;45.582;5.298;2023-04-06T12:09:58;16.60;37.00
33827;DHT22;20128;45.582;5.298;2023-04-06T12:12:24;16.60;37.00
33827;DHT22;20128;45.582;5.298;2023-04-06T12:14:50;16.70;36.60
33827;DHT22;20128;45.582;5.298;2023-04-06T12:17:16;16.70;36.50
33827;DHT22;20128;45.582;5.298;2023-04-06T12:19:42;16.70;36.80
33827;DHT22;20128;45.582;5.298;2023-04-06T12:22:07;16.80;36.10
33827;DHT22;20128;45.582;5.298;2023-04-06T12:24:33;16.80;36.20
33827;DHT22;20128;45.582;5.298;2023-04-06T12:26:59;16.80;36.40
33827;DHT22;20128;45.582;5.298;2023-04-06T12:29:24;16.80;36.40
33827;DHT22;20128;45.582;5.298;2023-04-06T12:31:50;16.90;35.50
33827;DHT22;20128;45.582;5.298;2023-04-06T12:34:16;16.90;35.40
33827;DHT22;20128;45.582;5.298;2023-04-06T12:36:42;16.90;35.80
33827;DHT22;20128;45.582;5.298;2023-04-06T12:39:07;16.90;35.10
33827;DHT22;20128;45.582;5.298;2023-04-06T12:41:33;16.90;34.90
33827;DHT22;20128;45.582;5.298;2023-04-06T12:44:00;16.90;35.30
33827;DHT22;20128;45.582;5.298;2023-04-06T12:46:26;16.90;35.70
33827;DHT22;20128;45.582;5.298;2023-04-06T12:48:52;17.00;36.60
33827;DHT22;20128;45.582;5.298;2023-04-06T12:51:21;17.00;36.10
33827;DHT22;20128;45.582;5.298;2023-04-06T12:53:47;17.10;36.30
33827;DHT22;20128;45.582;5.298;2023-04-06T12:56:14;17.10;36.20
33827;DHT22;20128;45.582;5.298;2023-04-06T12:58:41;17.20;35.80
33827;DHT22;20128;45.582;5.298;2023-04-06T13:01:07;17.20;34.80
33827;DHT22;20128;45.582;5.298;2023-04-06T13:03:33;17.20;34.50
33827;DHT22;20128;45.582;5.298;2023-04-06T13:06:00;17.10;35.00
33827;DHT22;20128;45.582;5.298;2023-04-06T13:08:26;17.10;34.60
33827;DHT22;20128;45.582;5.298;2023-04-06T13:10:53;17.10;34.80
33827;DHT22;20128;45.582;5.298;2023-04-06T13:13:23;17.20;34.30
33827;DHT22;20128;45.582;5.298;2023-04-06T13:15:50;17.30;34.70
33827;DHT22;20128;45.582;5.298;2023-04-06T13:18:16;17.40;34.90
33827;DHT22;20128;45.582;5.298;2023-04-06T13:20:42;17.40;34.70
33827;DHT22;20128;45.582;5.298;2023-04-06T13:23:08;17.40;35.00
33827;DHT22;20128;45.582;5.298;2023-04-06T13:25:34;17.50;34.50
33827;DHT22;20128;45.582;5.298;2023-04-06T13:28:00;17.50;34.80
33827;DHT22;20128;45.582;5.298;2023-04-06T13:30:26;17.50;35.00
33827;DHT22;20128;45.582;5.298;2023-04-06T13:32:52;17.50;33.70
33827;DHT22;20128;45.582;5.298;2023-04-06T13:35:18;17.60;33.30
33827;DHT22;20128;45.582;5.298;2023-04-06T13:37:44;17.60;33.00
33827;DHT22;20128;45.582;5.298;2023-04-06T13:40:10;17.50;32.80
33827;DHT22;20128;45.582;5.298;2023-04-06T13:42:36;17.60;32.90
33827;DHT22;20128;45.582;5.298;2023-04-06T13:45:03;17.50;32.60
33827;DHT22;20128;45.582;5.298;2023-04-06T13:47:29;17.50;33.00
33827;DHT22;20128;45.582;5.298;2023-04-06T13:49:55;17.50;33.30
33827;DHT22;20128;45.582;5.298;2023-04-06T13:52:21;17.40;33.00
33827;DHT22;20128;45.582;5.298;2023-04-06T13:54:49;17.50;33.30
33827;DHT22;20128;45.582;5.298;2023-04-06T13:57:15;17.50;32.90
33827;DHT22;20128;45.582;5.298;2023-04-06T13:59:40;17.50;32.80
33827;DHT22;20128;45.582;5.298;2023-04-06T14:02:08;17.50;32.80
33827;DHT22;20128;45.582;5.298;2023-04-06T14:04:34;17.50;32.90
33827;DHT22;20128;45.582;5.298;2023-04-06T14:07:01;17.50;33.10
33827;DHT22;20128;45.582;5.298;2023-04-06T14:09:27;17.40;32.70
33827;DHT22;20128;45.582;5.298;2023-04-06T14:11:53;17.50;32.40
33827;DHT22;20128;45.582;5.298;2023-04-06T14:14:19;17.50;32.70
33827;DHT22;20128;45.582;5.298;2023-04-06T14:16:46;17.40;32.50
33827;DHT22;20128;45.582;5.298;2023-04-06T14:19:13;17.40;32.30
33827;DHT22;20128;45.582;5.298;2023-04-06T14:21:41;17.40;32.90
33827;DHT22;20128;45.582;5.298;2023-04-06T14:24:07;17.40;32.30
33827;DHT22;20128;45.582;5.298;2023-04-06T14:26:37;17.40;32.40
33827;DHT22;20128;45.582;5.298;2023-04-06T14:29:03;17.30;32.50
33827;DHT22;20128;45.582;5.298;2023-04-06T14:31:30;17.30;32.60
33827;DHT22;20128;45.582;5.298;2023-04-06T14:33:56;17.30;33.20
33827;DHT22;20128;45.582;5.298;2023-04-06T14:36:21;17.40;33.60
33827;DHT22;20128;45.582;5.298;2023-04-06T14:38:47;17.40;33.10
33827;DHT22;20128;45.582;5.298;2023-04-06T14:41:16;17.40;32.90
33827;DHT22;20128;45.582;5.298;2023-04-06T14:43:43;17.40;32.70
33827;DHT22;20128;45.582;5.298;2023-04-06T14:46:09;17.50;32.70
33827;DHT22;20128;45.582;5.298;2023-04-06T14:48:35;17.50;31.10
33827;DHT22;20128;45.582;5.298;2023-04-06T14:51:01;17.40;30.00
33827;DHT22;20128;45.582;5.298;2023-04-06T14:53:27;17.30;30.90
33827;DHT22;20128;45.582;5.298;2023-04-06T14:55:54;17.30;30.60
33827;DHT22;20128;45.582;5.298;2023-04-06T14:58:20;17.30;30.50
33827;DHT22;20128;45.582;5.298;2023-04-06T15:00:46;17.40;30.50
33827;DHT22;20128;45.582;5.298;2023-04-06T15:03:12;17.40;30.20
33827;DHT22;20128;45.582;5.298;2023-04-06T15:05:37;17.40;30.00
33827;DHT22;20128;45.582;5.298;2023-04-06T15:08:03;17.40;30.50
33827;DHT22;20128;45.582;5.298;2023-04-06T15:10:31;17.30;30.60
33827;DHT22;20128;45.582;5.298;2023-04-06T15:12:57;17.30;30.60
33827;DHT22;20128;45.582;5.298;2023-04-06T15:15:23;17.20;30.40
33827;DHT22;20128;45.582;5.298;2023-04-06T15:17:48;17.30;29.90
33827;DHT22;20128;45.582;5.298;2023-04-06T15:20:14;17.30;30.40
33827;DHT22;20128;45.582;5.298;2023-04-06T15:22:39;17.40;30.60
33827;DHT22;20128;45.582;5.298;2023-04-06T15:25:05;17.50;31.10
33827;DHT22;20128;45.582;5.298;2023-04-06T15:27:31;17.60;29.60
33827;DHT22;20128;45.582;5.298;2023-04-06T15:29:57;17.60;29.90
33827;DHT22;20128;45.582;5.298;2023-04-06T15:32:24;17.60;30.10
33827;DHT22;20128;45.582;5.298;2023-04-06T15:34:50;17.60;30.20
33827;DHT22;20128;45.582;5.298;2023-04-06T15:37:16;17.70;30.00
33827;DHT22;20128;45.582;5.298;2023-04-06T15:39:42;17.70;30.00
33827;DHT22;20128;45.582;5.298;2023-04-06T15:42:08;17.80;29.90
33827;DHT22;20128;45.582;5.298;2023-04-06T15:44:34;17.90;30.00